Time;durP1;ratioP1;P1;durP2;ratioP2;P2;SDS_P1;SDS_P2;PMS_P1;PMS_P2;Temp;Humidity;BMP_temperature;BMP_pressure;BME280_temperature;BME280_humidity;BME280_pressure;Samples;Min_cycle;Max_cycle;Signal;HPM_P1;HPM_P2
2023/06/17 00:00:12;;;;;;;9.48;5.80;;;;;;;16.14;47.57;100992.75;841064;23;1096;-80
2023/06/17 00:00:34;;;;;;;11.35;5.70;;;;;;;16.17;48.07;101003.31;839683;23;1356;-79
2023/06/17 00:00:55;;;;;;;10.30;5.60;;;;;;;16.15;47.89;100991.88;837298;23;744;-79
2023/06/17 00:01:16;;;;;;;10.00;5.60;;;;;;;16.06;48.06;100980.38;839407;23;1214;-79
2023/06/17 00:01:36;;;;;;;7.32;5.85;;;;;;;16.09;47.74;100991.84;840904;23;1295;-79
2023/06/17 00:01:57;;;;;;;7.75;6.00;;;;;;;16.11;48.08;100992.72;841176;23;877;-79
2023/06/17 00:02:18;;;;;;;9.13;6.13;;;;;;;16.06;48.10;100990.91;846867;23;1138;-79
2023/06/17 00:02:38;;;;;;;9.55;6.18;;;;;;;16.04;48.29;100983.91;845119;23;983;-78
2023/06/17 00:03:00;;;;;;;9.48;6.15;;;;;;;16.06;48.24;100985.66;839709;23;1217;-79
2023/06/17 00:03:21;;;;;;;9.45;6.05;;;;;;;16.06;48.32;100991.81;835508;23;1390;-79
2023/06/17 00:03:42;;;;;;;9.98;6.00;;;;;;;15.97;47.97;100982.06;837077;23;935;-79
2023/06/17 00:04:03;;;;;;;9.15;6.10;;;;;;;16.03;48.02;100992.66;835734;23;1138;-79
2023/06/17 00:04:23;;;;;;;9.10;6.03;;;;;;;16.03;48.20;100999.66;835665;23;1209;-79
2023/06/17 00:04:44;;;;;;;8.13;5.93;;;;;;;15.99;48.27;100996.13;837011;23;1201;-79
2023/06/17 00:05:05;;;;;;;7.70;5.80;;;;;;;15.95;48.20;100990.81;837159;23;1122;-79
2023/06/17 00:05:26;;;;;;;7.95;6.00;;;;;;;15.92;48.20;100982.91;836887;23;1061;-79
2023/06/17 00:05:46;;;;;;;8.80;6.30;;;;;;;15.91;48.32;100989.91;835728;23;1234;-80
2023/06/17 00:06:09;;;;;;;9.35;6.60;;;;;;;15.94;48.21;100999.59;843782;23;1173;-79
2023/06/17 00:06:29;;;;;;;8.60;6.65;;;;;;;15.86;48.30;100979.34;838535;23;1403;-79
2023/06/17 00:06:50;;;;;;;8.73;6.50;;;;;;;15.88;48.41;100988.13;839098;23;1238;-79
2023/06/17 00:07:10;;;;;;;8.17;6.13;;;;;;;15.87;48.38;100983.72;845293;23;1057;-80
2023/06/17 00:07:31;;;;;;;8.48;6.13;;;;;;;15.87;48.57;100983.72;835643;23;1169;-78
2023/06/17 00:07:52;;;;;;;8.38;6.20;;;;;;;15.90;48.67;100990.78;837255;23;832;-81
2023/06/17 00:08:13;;;;;;;8.57;6.30;;;;;;;15.83;48.71;100976.69;831757;23;1139;-79
2023/06/17 00:08:33;;;;;;;9.30;6.40;;;;;;;15.81;48.64;100975.81;833256;23;1083;-79
2023/06/17 00:08:54;;;;;;;9.55;6.68;;;;;;;15.86;48.51;100984.59;835866;23;1636;-80
2023/06/17 00:09:15;;;;;;;9.38;6.60;;;;;;;15.82;48.39;100982.81;847549;23;1219;-80
2023/06/17 00:09:38;;;;;;;9.20;6.30;;;;;;;15.85;48.48;100988.09;835255;23;1246;-80
2023/06/17 00:09:59;;;;;;;8.70;5.97;;;;;;;15.87;48.56;100989.00;831276;23;1948;-79
2023/06/17 00:10:20;;;;;;;8.82;6.18;;;;;;;15.85;48.71;100981.97;834208;23;1373;-80
2023/06/17 00:10:41;;;;;;;9.23;6.40;;;;;;;15.85;48.72;100982.84;834630;23;1262;-80
2023/06/17 00:11:01;;;;;;;10.63;6.40;;;;;;;15.83;48.77;100979.31;835794;23;1277;-79
2023/06/17 00:11:22;;;;;;;10.60;6.70;;;;;;;15.82;48.66;100977.56;840998;23;966;-79
2023/06/17 00:11:43;;;;;;;9.63;6.72;;;;;;;15.89;48.53;100989.03;839105;23;1213;-79
2023/06/17 00:12:04;;;;;;;8.55;6.47;;;;;;;15.87;48.66;100983.72;839737;23;1247;-79
2023/06/17 00:12:25;;;;;;;8.00;6.05;;;;;;;15.81;48.71;100981.06;844860;23;1012;-80
2023/06/17 00:12:48;;;;;;;7.93;5.88;;;;;;;15.78;48.70;100970.50;841191;23;830;-79
2023/06/17 00:13:08;;;;;;;7.60;5.70;;;;;;;15.78;48.81;100981.03;837129;23;968;-80
2023/06/17 00:13:29;;;;;;;9.40;5.82;;;;;;;15.76;48.76;100972.25;843353;23;1188;-79
2023/06/17 00:13:50;;;;;;;9.38;5.82;;;;;;;15.82;48.84;100988.09;841217;23;903;-79
2023/06/17 00:14:10;;;;;;;9.20;6.15;;;;;;;15.82;48.98;100988.09;839734;23;1097;-79
2023/06/17 00:14:32;;;;;;;7.97;6.20;;;;;;;15.74;48.94;100971.34;836963;23;870;-80
2023/06/17 00:14:53;;;;;;;8.40;6.10;;;;;;;15.79;48.90;100988.03;831833;23;1127;-80
2023/06/17 00:15:16;;;;;;;8.70;6.13;;;;;;;15.75;48.76;100981.00;834385;23;1087;-79
2023/06/17 00:15:37;;;;;;;9.57;6.32;;;;;;;15.75;48.93;100987.13;839644;23;1239;-80
2023/06/17 00:15:59;;;;;;;9.40;6.30;;;;;;;15.71;49.20;100984.44;839517;23;1235;-79
2023/06/17 00:16:20;;;;;;;8.57;6.00;;;;;;;15.74;49.26;100988.00;841160;23;1092;-79
2023/06/17 00:16:43;;;;;;;8.30;6.00;;;;;;;15.71;49.43;100985.34;834743;23;1340;-80
2023/06/17 00:17:04;;;;;;;8.40;6.30;;;;;;;15.66;49.27;100973.88;835937;23;1195;-80
2023/06/17 00:17:26;;;;;;;10.27;6.88;;;;;;;15.74;49.18;100987.13;841316;23;981;-79
2023/06/17 00:17:49;;;;;;;9.68;6.65;;;;;;;15.73;49.46;100985.38;839939;23;1317;-80
2023/06/17 00:18:10;;;;;;;10.25;6.50;;;;;;;15.71;49.28;100979.19;836036;23;1162;-79
2023/06/17 00:18:32;;;;;;;8.67;6.50;;;;;;;15.65;49.28;100965.97;834997;23;1249;-79
2023/06/17 00:18:53;;;;;;;9.85;6.60;;;;;;;15.67;49.06;100973.00;844040;23;1324;-80
2023/06/17 00:19:15;;;;;;;9.35;6.68;;;;;;;15.76;49.16;100980.13;839079;23;1376;-79
2023/06/17 00:19:37;;;;;;;8.63;6.47;;;;;;;15.78;49.05;100991.53;845253;23;858;-80
2023/06/17 00:20:00;;;;;;;8.40;6.50;;;;;;;15.79;49.18;100987.19;841372;23;799;-79
2023/06/17 00:20:23;;;;;;;7.97;6.13;;;;;;;15.80;49.26;100988.94;841298;23;1086;-79
2023/06/17 00:20:44;;;;;;;8.90;6.18;;;;;;;15.77;49.30;100979.25;835747;23;1545;-79
2023/06/17 00:21:05;;;;;;;9.57;6.30;;;;;;;15.78;49.19;100986.28;837320;23;996;-80
2023/06/17 00:21:26;;;;;;;9.77;6.38;;;;;;;15.69;49.29;100971.31;841054;23;1161;-80
2023/06/17 00:21:52;;;;;;;8.30;6.20;;;;;;;15.69;49.03;100962.53;837421;23;993;-79
2023/06/17 00:22:13;;;;;;;8.00;6.20;;;;;;;15.74;49.26;100976.63;835857;23;1326;-80
2023/06/17 00:22:35;;;;;;;7.88;6.28;;;;;;;15.75;49.32;100988.91;837373;23;1095;-79
2023/06/17 00:22:56;;;;;;;8.80;6.40;;;;;;;15.74;49.12;100979.25;837480;23;817;-79
2023/06/17 00:23:16;;;;;;;9.80;6.80;;;;;;;15.72;49.50;100980.94;839700;23;1429;-79
2023/06/17 00:23:37;;;;;;;10.00;6.90;;;;;;;15.66;49.60;100970.38;835868;23;1283;-80
2023/06/17 00:23:58;;;;;;;8.35;6.40;;;;;;;15.63;49.25;100965.97;841551;23;827;-79
2023/06/17 00:24:19;;;;;;;9.10;6.40;;;;;;;15.75;49.51;100981.00;835725;23;1134;-79
2023/06/17 00:24:40;;;;;;;8.90;6.30;;;;;;;15.66;49.32;100971.25;841423;23;1031;-80
2023/06/17 00:25:02;;;;;;;9.07;6.47;;;;;;;15.74;49.30;100985.38;835998;23;1119;-79
2023/06/17 00:25:23;;;;;;;8.82;6.32;;;;;;;15.68;49.61;100973.91;833414;23;978;-80
2023/06/17 00:25:43;;;;;;;8.95;6.30;;;;;;;15.72;49.58;100986.22;835056;23;1164;-79
2023/06/17 00:26:04;;;;;;;8.40;5.90;;;;;;;15.67;49.48;100977.41;836063;23;1324;-79
2023/06/17 00:26:25;;;;;;;7.75;5.80;;;;;;;15.64;49.46;100973.00;831966;23;1207;-79
2023/06/17 00:26:46;;;;;;;8.40;6.25;;;;;;;15.69;49.46;100981.81;835405;23;1267;-80
2023/06/17 00:27:07;;;;;;;9.57;6.60;;;;;;;15.70;49.60;100985.31;832134;23;1089;-79
2023/06/17 00:27:28;;;;;;;9.15;6.47;;;;;;;15.62;49.54;100975.59;833249;23;1064;-80
2023/06/17 00:27:48;;;;;;;7.93;6.22;;;;;;;15.61;49.54;100968.59;833450;23;881;-80
2023/06/17 00:28:11;;;;;;;8.00;6.10;;;;;;;15.69;49.71;100991.47;841322;23;980;-79
2023/06/17 00:28:32;;;;;;;7.60;6.03;;;;;;;15.65;49.66;100969.50;837291;23;1029;-79
2023/06/17 00:28:52;;;;;;;8.18;6.20;;;;;;;15.61;49.59;100971.22;838276;23;855;-81
2023/06/17 00:29:15;;;;;;;9.70;6.10;;;;;;;15.62;49.63;100975.59;835676;23;1086;-79
2023/06/17 00:29:36;;;;;;;11.60;6.57;;;;;;;15.61;49.45;100973.84;835835;23;1180;-79
2023/06/17 00:30:00;;;;;;;12.00;6.40;;;;;;;15.63;49.53;100987.88;833389;23;1905;-80
2023/06/17 00:30:21;;;;;;;9.98;6.53;;;;;;;15.58;49.44;100978.19;835565;23;1125;-79
2023/06/17 00:30:45;;;;;;;8.80;6.22;;;;;;;15.61;49.70;100979.09;837368;23;1108;-79
2023/06/17 00:31:06;;;;;;;6.93;5.97;;;;;;;15.59;49.51;100979.94;835824;23;1330;-79
2023/06/17 00:31:26;;;;;;;6.53;5.80;;;;;;;15.62;49.52;100982.63;837072;23;1115;-80
2023/06/17 00:31:47;;;;;;;6.95;5.85;;;;;;;15.58;49.74;100986.06;833410;23;767;-79
2023/06/17 00:32:08;;;;;;;9.03;6.13;;;;;;;15.59;50.23;100980.84;837399;23;1092;-80
2023/06/17 00:32:30;;;;;;;9.85;6.30;;;;;;;15.49;50.03;100960.59;839300;23;1156;-79
2023/06/17 00:32:52;;;;;;;10.35;6.30;;;;;;;15.56;49.90;100980.78;839992;23;1251;-79
2023/06/17 00:33:14;;;;;;;10.25;6.30;;;;;;;15.47;50.13;100959.66;835923;23;1466;-79
2023/06/17 00:33:35;;;;;;;9.82;6.38;;;;;;;15.57;50.14;100982.59;839900;23;1343;-79
2023/06/17 00:33:56;;;;;;;9.43;6.67;;;;;;;15.48;50.12;100971.94;845529;23;1243;-79
2023/06/17 00:34:17;;;;;;;8.30;6.90;;;;;;;15.49;50.22;100968.47;835722;23;1112;-79
2023/06/17 00:34:38;;;;;;;8.20;6.80;;;;;;;15.48;50.30;100967.56;837375;23;984;-79
2023/06/17 00:34:58;;;;;;;8.27;6.35;;;;;;;15.54;50.08;100982.53;831737;23;1387;-80
2023/06/17 00:35:20;;;;;;;9.70;6.20;;;;;;;15.54;50.10;100977.28;833276;23;1111;-80
2023/06/17 00:35:41;;;;;;;9.30;6.10;;;;;;;15.52;50.25;100973.75;833365;23;956;-79
2023/06/17 00:36:03;;;;;;;9.18;6.00;;;;;;;15.54;50.24;100979.03;832070;23;1360;-79
2023/06/17 00:36:24;;;;;;;7.20;5.63;;;;;;;15.43;50.21;100963.13;835669;23;1082;-80
2023/06/17 00:36:44;;;;;;;7.73;5.80;;;;;;;15.46;50.21;100974.56;836894;23;1078;-81
2023/06/17 00:37:05;;;;;;;8.27;6.32;;;;;;;15.42;50.10;100971.91;845350;23;1080;-80
2023/06/17 00:37:26;;;;;;;8.25;6.32;;;;;;;15.42;50.33;100972.75;842726;23;1385;-79
2023/06/17 00:37:46;;;;;;;7.87;6.13;;;;;;;15.41;50.48;100972.72;839960;23;1241;-79
2023/06/17 00:38:07;;;;;;;7.50;5.65;;;;;;;15.34;50.34;100963.91;837409;23;978;-79
2023/06/17 00:38:28;;;;;;;7.88;5.50;;;;;;;15.38;50.25;100976.25;844990;23;1091;-79
2023/06/17 00:38:50;;;;;;;8.05;5.57;;;;;;;15.33;50.34;100970.94;836020;23;1260;-79
2023/06/17 00:39:11;;;;;;;8.35;5.78;;;;;;;15.33;50.44;100972.66;835361;23;1064;-79
2023/06/17 00:39:32;;;;;;;7.90;6.13;;;;;;;15.29;50.39;100969.13;835846;23;1288;-79
2023/06/17 00:39:53;;;;;;;8.20;6.30;;;;;;;15.31;50.67;100980.53;835995;23;1137;-79
2023/06/17 00:40:14;;;;;;;8.10;6.30;;;;;;;15.20;50.75;100963.72;835948;23;1052;-79
2023/06/17 00:40:35;;;;;;;8.05;6.03;;;;;;;15.27;50.87;100973.47;837236;23;1095;-79
2023/06/17 00:40:55;;;;;;;8.18;6.30;;;;;;;15.26;50.63;100971.72;836087;23;1394;-79
2023/06/17 00:41:16;;;;;;;7.80;6.10;;;;;;;15.18;50.72;100963.69;835837;23;1097;-79
2023/06/17 00:41:37;;;;;;;8.70;6.35;;;;;;;15.20;50.67;100971.59;841410;23;981;-79
2023/06/17 00:42:00;;;;;;;8.90;6.40;;;;;;;15.15;50.75;100962.78;837458;23;732;-79
2023/06/17 00:42:20;;;;;;;11.68;6.97;;;;;;;15.15;50.77;100958.41;835702;23;1361;-79
2023/06/17 00:42:41;;;;;;;13.48;7.25;;;;;;;15.20;50.67;100971.59;841375;23;1186;-79
2023/06/17 00:43:02;;;;;;;13.10;7.07;;;;;;;15.11;50.63;100961.84;841389;23;1042;-79
2023/06/17 00:43:23;;;;;;;10.70;6.73;;;;;;;15.19;50.50;100969.84;845406;23;1012;-80
2023/06/17 00:43:44;;;;;;;8.10;6.28;;;;;;;15.19;50.63;100977.72;843138;23;1366;-80
2023/06/17 00:44:04;;;;;;;7.97;6.18;;;;;;;15.16;50.63;100962.81;840083;23;1268;-79
2023/06/17 00:44:25;;;;;;;8.27;6.13;;;;;;;15.16;50.61;100975.03;834456;23;1211;-79
2023/06/17 00:44:46;;;;;;;8.47;6.33;;;;;;;15.17;50.83;100971.56;836040;23;1366;-78
2023/06/17 00:45:07;;;;;;;8.60;6.38;;;;;;;15.15;50.83;100962.78;837405;23;953;-78
2023/06/17 00:45:28;;;;;;;8.80;6.30;;;;;;;15.12;50.85;100968.00;839206;23;1329;-79
2023/06/17 00:45:48;;;;;;;8.57;6.22;;;;;;;15.17;50.62;100979.44;841427;23;832;-79
2023/06/17 00:46:24;;;;;;;7.80;6.07;;;;;;;15.19;50.78;100980.38;841305;23;964;-80
2023/06/17 00:46:48;;;;;;;8.73;6.22;;;;;;;15.16;50.61;100975.94;844768;23;834;-80
2023/06/17 00:47:11;;;;;;;8.60;6.30;;;;;;;15.16;50.51;100985.56;843948;23;1103;-80
2023/06/17 00:47:32;;;;;;;8.73;6.30;;;;;;;15.11;50.78;100966.25;845184;23;863;-79
2023/06/17 00:47:54;;;;;;;8.40;5.90;;;;;;;15.11;50.79;100976.75;838172;23;1130;-80
2023/06/17 00:48:15;;;;;;;8.80;5.80;;;;;;;15.12;51.06;100976.75;831360;23;1307;-79
2023/06/17 00:48:35;;;;;;;9.47;5.53;;;;;;;15.12;51.10;100981.16;837217;23;962;-80
2023/06/17 00:48:56;;;;;;;9.50;5.88;;;;;;;15.04;51.20;100970.53;837454;23;939;-80
2023/06/17 00:49:17;;;;;;;11.13;6.40;;;;;;;15.02;51.00;100967.00;841052;23;1014;-80
2023/06/17 00:49:40;;;;;;;10.43;6.60;;;;;;;15.13;51.06;100980.28;835943;23;1129;-79
2023/06/17 00:50:02;;;;;;;10.60;6.90;;;;;;;15.13;50.93;100982.91;839926;23;1911;-80
2023/06/17 00:50:24;;;;;;;8.95;6.65;;;;;;;15.06;51.02;100967.06;831910;23;1405;-80
2023/06/17 00:50:46;;;;;;;8.60;6.68;;;;;;;15.10;51.09;100986.38;835554;23;1078;-80
2023/06/17 00:51:08;;;;;;;8.20;6.28;;;;;;;15.11;50.89;100988.13;832044;23;1477;-80
2023/06/17 00:51:32;;;;;;;8.75;6.50;;;;;;;15.06;50.76;100976.69;835707;23;1376;-80
2023/06/17 00:51:53;;;;;;;8.38;6.40;;;;;;;15.07;50.94;100976.69;837588;23;882;-80
2023/06/17 00:52:14;;;;;;;8.40;6.50;;;;;;;15.07;50.67;100975.84;834967;23;1368;-79
2023/06/17 00:52:37;;;;;;;8.18;6.30;;;;;;;15.08;50.78;100975.84;835985;23;1181;-80
2023/06/17 00:52:58;;;;;;;8.52;6.70;;;;;;;15.10;50.69;100980.25;837453;23;811;-80
2023/06/17 00:53:19;;;;;;;8.60;6.70;;;;;;;15.08;50.79;100983.72;835835;23;1343;-80
2023/06/17 00:53:40;;;;;;;8.68;6.72;;;;;;;15.05;50.51;100973.19;839752;23;1050;-81
2023/06/17 00:54:02;;;;;;;9.43;6.85;;;;;;;15.04;50.58;100971.41;841438;23;838;-81
2023/06/17 00:54:24;;;;;;;9.30;6.75;;;;;;;15.00;50.62;100958.22;839638;23;1165;-80
2023/06/17 00:54:45;;;;;;;10.15;6.85;;;;;;;15.05;50.58;100977.53;841294;23;948;-80
2023/06/17 00:55:08;;;;;;;9.85;6.20;;;;;;;14.99;50.54;100969.59;839983;23;1117;-80
2023/06/17 00:55:30;;;;;;;11.23;6.25;;;;;;;15.06;50.58;100979.31;845042;23;1036;-80
2023/06/17 00:55:50;;;;;;;10.50;6.20;;;;;;;15.03;50.57;100974.91;836024;23;1137;-80
2023/06/17 00:56:12;;;;;;;8.60;6.20;;;;;;;15.03;50.58;100977.53;837215;23;1087;-80
2023/06/17 00:56:35;;;;;;;8.05;6.18;;;;;;;15.05;50.55;100982.78;841243;23;1065;-80
2023/06/17 00:56:57;;;;;;;8.98;6.35;;;;;;;14.99;50.48;100970.47;838039;23;1396;-80
2023/06/17 00:57:17;;;;;;;8.50;6.10;;;;;;;14.97;50.34;100974.81;835647;23;1169;-80
2023/06/17 00:57:39;;;;;;;8.23;5.90;;;;;;;15.01;50.45;100984.50;837239;23;998;-80
2023/06/17 00:58:00;;;;;;;7.97;5.80;;;;;;;15.03;50.40;100989.78;839562;23;1334;-79
2023/06/17 00:58:21;;;;;;;8.70;6.00;;;;;;;15.02;50.32;100983.66;835728;23;1175;-79
2023/06/17 00:58:42;;;;;;;8.70;5.93;;;;;;;14.94;50.45;100969.53;837263;23;1192;-81
2023/06/17 00:59:06;;;;;;;8.70;5.85;;;;;;;14.99;50.56;100983.59;837320;23;1088;-80
2023/06/17 00:59:32;;;;;;;8.20;5.72;;;;;;;14.92;50.59;100980.03;836742;23;1139;-80
2023/06/17 00:59:54;;;;;;;8.18;5.93;;;;;;;14.98;50.52;100984.47;831732;23;1517;-80
2023/06/17 01:00:15;;;;;;;8.38;6.20;;;;;;;14.98;50.58;100987.09;831198;23;1473;-79
2023/06/17 01:00:36;;;;;;;8.60;6.40;;;;;;;14.93;50.44;100983.50;835882;23;1294;-79
2023/06/17 01:00:57;;;;;;;9.05;6.30;;;;;;;14.93;50.47;100989.66;837608;23;864;-80
2023/06/17 01:01:18;;;;;;;9.38;5.88;;;;;;;14.93;50.55;100984.41;835620;23;1182;-80
2023/06/17 01:01:38;;;;;;;8.70;5.63;;;;;;;14.90;50.67;100978.22;834563;23;1095;-79
2023/06/17 01:01:59;;;;;;;8.02;6.00;;;;;;;14.90;50.64;100980.88;834050;23;935;-81
2023/06/17 01:02:25;;;;;;;8.20;6.00;;;;;;;14.80;50.63;100966.72;836260;23;1141;-81
2023/06/17 01:02:46;;;;;;;8.80;6.32;;;;;;;14.80;50.57;100972.84;843866;23;1195;-80
2023/06/17 01:03:09;;;;;;;9.25;6.40;;;;;;;14.74;50.74;100962.25;847911;23;1376;-79
2023/06/17 01:03:30;;;;;;;8.35;6.40;;;;;;;14.75;51.11;100971.91;839722;23;1032;-80
2023/06/17 01:03:53;;;;;;;7.70;6.05;;;;;;;14.69;50.97;100963.06;839962;23;1159;-80
2023/06/17 01:04:15;;;;;;;7.80;6.20;;;;;;;14.70;51.27;100965.72;835653;23;1260;-80
2023/06/17 01:04:37;;;;;;;8.95;6.40;;;;;;;14.67;51.41;100965.66;839746;23;1412;-80
2023/06/17 01:05:01;;;;;;;8.88;6.28;;;;;;;14.72;51.34;100974.50;843271;23;1113;-80
2023/06/17 01:05:23;;;;;;;8.57;6.07;;;;;;;14.72;51.55;100987.63;845237;23;1103;-80
2023/06/17 01:05:46;;;;;;;7.90;5.88;;;;;;;14.71;51.66;100980.63;838786;23;1231;-80
2023/06/17 01:06:14;;;;;;;9.40;6.00;;;;;;;14.67;51.63;100986.66;839008;23;1176;-80
2023/06/17 01:06:52;;;;;;;11.00;6.20;;;;;;;14.67;51.40;100989.31;841130;23;1015;-80
2023/06/17 01:07:45;;;;;;;9.45;6.40;;;;;;;14.63;51.77;100984.88;839761;23;1831;-80
2023/06/17 01:08:28;;;;;;;9.60;6.50;;;;;;;14.62;51.91;100981.34;835858;23;1129;-81
2023/06/17 01:09:01;;;;;;;8.00;6.20;;;;;;;14.59;52.17;100985.69;837155;23;815;-80
2023/06/17 01:09:29;;;;;;;8.20;6.30;;;;;;;14.48;51.87;100973.28;839767;23;1182;-80
2023/06/17 01:10:26;;;;;;;8.27;6.43;;;;;;;14.56;52.09;100983.03;837761;23;1890;-80
2023/06/17 01:10:56;;;;;;;6.85;5.53;;;;;;;14.54;52.25;100985.63;840539;23;1319;-80
2023/06/17 01:11:19;;;;;;;6.82;5.45;;;;;;;14.47;52.25;100978.50;843643;23;1076;-80
2023/06/17 01:11:42;;;;;;;6.80;5.43;;;;;;;14.42;52.35;100972.28;843232;23;1028;-80
2023/06/17 01:12:07;;;;;;;7.45;5.60;;;;;;;14.40;52.17;100972.28;839876;23;1247;-80
2023/06/17 01:12:28;;;;;;;9.35;6.00;;;;;;;14.38;52.54;100968.75;843479;23;1239;-80
2023/06/17 01:12:52;;;;;;;9.65;6.20;;;;;;;14.37;52.40;100970.50;835903;23;1160;-79
2023/06/17 01:13:15;;;;;;;9.27;6.30;;;;;;;14.46;52.33;100993.38;835813;23;1215;-79
2023/06/17 01:13:37;;;;;;;8.02;6.32;;;;;;;14.44;52.43;100988.97;841222;23;1013;-80
2023/06/17 01:13:58;;;;;;;7.80;6.00;;;;;;;14.40;52.51;100985.41;835484;23;1308;-79
2023/06/17 01:14:21;;;;;;;7.82;5.75;;;;;;;14.38;52.75;100984.50;841084;23;1111;-79
2023/06/17 01:14:42;;;;;;;8.13;6.10;;;;;;;14.36;52.64;100975.72;838995;23;1389;-79
2023/06/17 01:15:04;;;;;;;7.78;6.10;;;;;;;14.31;52.79;100970.38;841469;23;1215;-79
2023/06/17 01:15:25;;;;;;;7.97;6.50;;;;;;;14.38;52.97;100989.75;841746;23;1172;-80
2023/06/17 01:15:47;;;;;;;9.88;6.50;;;;;;;14.37;53.10;100994.13;849968;23;1227;-81
2023/06/17 01:16:09;;;;;;;10.10;6.50;;;;;;;14.38;53.06;100992.38;844301;23;1380;-80
2023/06/17 01:16:33;;;;;;;9.93;6.43;;;;;;;14.33;52.98;100981.78;849284;23;1171;-80
2023/06/17 01:16:54;;;;;;;9.23;6.60;;;;;;;14.37;53.00;100980.09;839536;23;1199;-80
2023/06/17 01:17:17;;;;;;;9.80;6.70;;;;;;;14.41;53.05;100995.03;839793;23;1363;-81
2023/06/17 01:17:43;;;;;;;10.13;6.68;;;;;;;14.38;53.10;100989.75;835818;23;1207;-80
2023/06/17 01:18:07;;;;;;;9.02;6.90;;;;;;;14.35;53.13;100981.81;837417;23;1113;-80
2023/06/17 01:18:29;;;;;;;9.15;7.30;;;;;;;14.42;53.28;100986.31;841961;23;1340;-79
2023/06/17 01:18:52;;;;;;;9.10;7.13;;;;;;;14.41;53.24;100988.91;844041;23;1345;-80
2023/06/17 01:19:20;;;;;;;8.65;6.78;;;;;;;14.36;53.23;100975.72;845236;23;1075;-80
2023/06/17 01:19:48;;;;;;;8.95;6.28;;;;;;;14.32;53.36;100973.91;845219;23;920;-79
2023/06/17 01:20:10;;;;;;;10.32;6.63;;;;;;;14.34;53.31;100972.19;845263;23;968;-80
2023/06/17 01:20:32;;;;;;;10.35;6.65;;;;;;;14.34;53.63;100973.06;835204;23;1194;-80
2023/06/17 01:20:55;;;;;;;11.07;6.70;;;;;;;14.41;53.35;100984.53;839953;23;1213;-80
2023/06/17 01:21:22;;;;;;;10.60;7.00;;;;;;;14.33;53.35;100970.41;843671;23;1253;-80
2023/06/17 01:21:43;;;;;;;9.25;6.55;;;;;;;14.36;53.49;100981.84;841205;23;927;-80
2023/06/17 01:22:07;;;;;;;8.00;6.30;;;;;;;14.37;53.30;100986.25;839833;23;1269;-80
2023/06/17 01:22:29;;;;;;;10.60;6.85;;;;;;;14.35;53.60;100973.94;843173;23;1093;-80
2023/06/17 01:22:54;;;;;;;10.93;7.18;;;;;;;14.42;53.76;100983.69;839917;23;1103;-80
2023/06/17 01:23:16;;;;;;;11.27;7.18;;;;;;;14.37;53.55;100977.47;839703;23;1351;-80
2023/06/17 01:23:41;;;;;;;10.50;7.40;;;;;;;14.39;53.79;100983.66;839619;23;1259;-80
2023/06/17 01:24:03;;;;;;;10.10;7.10;;;;;;;14.44;53.62;100994.22;839915;23;1189;-80
2023/06/17 01:24:29;;;;;;;9.82;7.20;;;;;;;14.34;53.83;100970.44;843743;23;1371;-80
2023/06/17 01:24:51;;;;;;;9.65;7.22;;;;;;;14.38;53.74;100974.00;840015;23;1253;-80
2023/06/17 01:25:13;;;;;;;9.35;7.10;;;;;;;14.34;54.03;100972.19;843891;23;1259;-80
2023/06/17 01:25:34;;;;;;;8.48;6.60;;;;;;;14.31;53.86;100969.53;845322;23;1043;-80
2023/06/17 01:25:57;;;;;;;8.65;6.57;;;;;;;14.33;53.78;100967.78;840111;23;1279;-80
2023/06/17 01:26:21;;;;;;;9.27;6.75;;;;;;;14.27;53.70;100959.81;837122;23;986;-79
2023/06/17 01:26:45;;;;;;;9.50;6.80;;;;;;;14.29;53.65;100963.34;836617;23;1121;-79
2023/06/17 01:27:06;;;;;;;9.88;6.68;;;;;;;14.30;53.99;100967.72;835749;23;1555;-80
2023/06/17 01:27:28;;;;;;;13.10;6.70;;;;;;;14.33;53.92;100976.53;839535;23;1196;-79
2023/06/17 01:27:49;;;;;;;14.23;6.80;;;;;;;14.34;54.00;100983.56;843917;23;1097;-80
2023/06/17 01:28:19;;;;;;;14.02;7.20;;;;;;;14.33;53.71;100980.91;845342;23;937;-80
2023/06/17 01:29:10;;;;;;;10.20;7.07;;;;;;;14.30;54.10;100975.59;843332;23;1139;-79
2023/06/17 01:29:32;;;;;;;8.40;6.95;;;;;;;14.26;53.80;100977.31;845421;23;1022;-79
2023/06/17 01:29:54;;;;;;;9.30;7.47;;;;;;;14.22;54.04;100979.00;840306;23;1931;-80
2023/06/17 01:30:16;;;;;;;10.05;8.02;;;;;;;14.18;54.24;100965.78;838717;23;1336;-79
2023/06/17 01:30:36;;;;;;;10.05;8.13;;;;;;;14.25;53.99;100972.91;835788;23;1086;-80
2023/06/17 01:30:57;;;;;;;12.98;7.95;;;;;;;14.21;54.08;100960.59;835924;23;1500;-80
2023/06/17 01:31:18;;;;;;;13.83;7.83;;;;;;;14.20;54.22;100964.09;841068;23;927;-80
2023/06/17 01:31:39;;;;;;;12.70;7.30;;;;;;;14.23;54.17;100972.91;842988;23;1419;-80
2023/06/17 01:32:05;;;;;;;10.10;7.35;;;;;;;14.28;54.35;100974.69;835870;23;1442;-80
2023/06/17 01:32:26;;;;;;;9.38;7.03;;;;;;;14.30;54.28;100970.34;837063;23;1107;-80
2023/06/17 01:32:47;;;;;;;9.27;7.10;;;;;;;14.22;54.18;100963.28;835744;23;1222;-80
2023/06/17 01:33:11;;;;;;;10.70;7.20;;;;;;;14.28;54.02;100974.69;844055;23;1217;-80
2023/06/17 01:33:32;;;;;;;11.80;7.30;;;;;;;14.25;54.56;100976.44;843670;23;1342;-80
2023/06/17 01:33:59;;;;;;;10.85;7.43;;;;;;;14.22;54.45;100968.50;845481;23;955;-80
2023/06/17 01:34:25;;;;;;;9.20;7.22;;;;;;;14.14;54.64;100959.63;839465;23;1149;-80
2023/06/17 01:34:59;;;;;;;9.80;7.07;;;;;;;14.16;54.43;100965.78;848010;23;1313;-80
2023/06/17 01:35:21;;;;;;;8.85;6.50;;;;;;;14.23;54.66;100975.53;845201;23;1068;-80
2023/06/17 01:35:52;;;;;;;9.15;6.55;;;;;;;14.18;54.90;100969.31;849404;23;909;-80
2023/06/17 01:36:28;;;;;;;11.32;7.47;;;;;;;14.21;55.06;100971.09;849271;23;1078;-79
2023/06/17 01:36:53;;;;;;;11.85;7.32;;;;;;;14.14;54.57;100958.75;848759;23;799;-79
2023/06/17 01:37:23;;;;;;;9.95;6.82;;;;;;;14.10;54.70;100957.78;845064;23;1084;-80
2023/06/17 01:37:53;;;;;;;9.30;7.15;;;;;;;14.14;55.00;100959.63;843669;23;1295;-80
2023/06/17 01:38:41;;;;;;;9.68;7.55;;;;;;;14.22;55.07;100978.13;849130;23;1085;-81
2023/06/17 01:39:03;;;;;;;11.70;7.90;;;;;;;14.11;55.02;100954.31;836369;23;1181;-80
2023/06/17 01:39:25;;;;;;;11.27;8.00;;;;;;;14.17;55.08;100967.56;835678;23;1186;-80
2023/06/17 01:39:48;;;;;;;8.95;7.30;;;;;;;14.14;55.31;100969.25;837298;23;822;-80
2023/06/17 01:40:12;;;;;;;8.68;7.07;;;;;;;14.16;55.42;100978.00;843460;23;1063;-80
2023/06/17 01:40:34;;;;;;;8.32;6.85;;;;;;;14.09;55.39;100961.25;841193;23;1106;-80
2023/06/17 01:41:06;;;;;;;9.10;7.07;;;;;;;14.07;55.27;100957.75;843918;23;819;-80
2023/06/17 01:41:33;;;;;;;10.00;7.50;;;;;;;14.07;55.54;100969.09;849009;23;1134;-80
2023/06/17 01:41:57;;;;;;;10.32;7.75;;;;;;;14.15;55.47;100982.41;839112;23;1268;-80
2023/06/17 01:42:28;;;;;;;9.27;7.13;;;;;;;14.08;55.59;100964.75;845319;23;1011;-79
2023/06/17 01:42:51;;;;;;;8.15;6.93;;;;;;;14.13;55.82;100975.34;849308;23;921;-80
2023/06/17 01:43:15;;;;;;;8.95;6.80;;;;;;;14.01;55.67;100955.00;839123;23;1262;-80
2023/06/17 01:43:39;;;;;;;10.95;7.68;;;;;;;14.05;55.68;100959.44;847864;23;1333;-80
2023/06/17 01:44:01;;;;;;;11.40;7.88;;;;;;;14.04;55.71;100960.28;842881;23;1367;-80
2023/06/17 01:44:24;;;;;;;10.73;7.95;;;;;;;14.07;55.50;100973.47;841282;23;973;-80
2023/06/17 01:44:47;;;;;;;9.82;7.53;;;;;;;13.95;55.85;100950.53;841301;23;837;-80
2023/06/17 01:45:09;;;;;;;9.52;7.30;;;;;;;13.98;55.67;100958.44;843910;23;1137;-80
2023/06/17 01:45:30;;;;;;;10.65;7.57;;;;;;;14.01;55.92;100968.97;844987;23;1162;-79
2023/06/17 01:45:53;;;;;;;10.50;7.70;;;;;;;13.99;55.82;100965.47;845410;23;767;-79
2023/06/17 01:46:15;;;;;;;10.50;7.60;;;;;;;13.94;55.87;100957.50;845063;23;1065;-80
2023/06/17 01:46:37;;;;;;;9.65;7.40;;;;;;;13.97;56.10;100972.44;843719;23;1556;-80
2023/06/17 01:46:58;;;;;;;9.40;7.25;;;;;;;14.00;56.25;100971.59;835306;23;1361;-80
2023/06/17 01:47:19;;;;;;;11.15;7.40;;;;;;;14.02;56.07;100972.50;841065;23;1156;-80
2023/06/17 01:47:40;;;;;;;11.02;7.28;;;;;;;14.00;56.52;100974.22;839715;23;1422;-80
2023/06/17 01:48:01;;;;;;;11.18;7.63;;;;;;;13.96;56.28;100968.91;839948;23;1437;-80
2023/06/17 01:48:22;;;;;;;9.77;7.70;;;;;;;13.93;56.45;100955.75;843525;23;1257;-80
2023/06/17 01:48:44;;;;;;;9.73;7.80;;;;;;;14.00;56.41;100977.72;843345;23;1457;-80